Time;durP1;ratioP1;P1;durP2;ratioP2;P2;SDS_P1;SDS_P2;PMS_P1;PMS_P2;Temp;Humidity;BMP_temperature;BMP_pressure;BME280_temperature;BME280_humidity;BME280_pressure;Samples;Min_cycle;Max_cycle;Signal;HPM_P1;HPM_P2
2023/08/23 00:07:59;;;;;;;16.25;11.82;;;18.50;99.90;;;;;;21027360;28;20043;-60
2023/08/23 00:18:01;;;;;;;15.95;12.13;;;18.40;99.90;;;;;;21026993;28;20020;-61
2023/08/23 00:28:03;;;;;;;14.45;11.70;;;18.30;99.90;;;;;;21014273;28;20036;-51
2023/08/23 00:38:04;;;;;;;13.50;11.55;;;18.20;99.90;;;;;;21031889;28;20032;-60
2023/08/23 00:48:08;;;;;;;14.68;12.75;;;18.30;99.90;;;;;;21019284;28;20046;-61
2023/08/23 00:58:10;;;;;;;15.10;11.85;;;18.40;99.90;;;;;;21041784;28;20048;-61
2023/08/23 01:08:27;;;;;;;14.07;12.00;;;18.70;99.90;;;;;;21003710;28;20434;-60
2023/08/23 01:18:31;;;;;;;13.18;11.60;;;18.70;99.90;;;;;;21023062;28;20474;-61
2023/08/23 01:28:33;;;;;;;13.65;11.93;;;18.80;99.90;;;;;;21029648;28;20028;-60
2023/08/23 01:38:35;;;;;;;13.63;11.25;;;18.90;99.90;;;;;;21028256;28;20035;-61
2023/08/23 01:48:37;;;;;;;13.00;11.55;;;18.70;99.90;;;;;;21010655;28;20473;-62
2023/08/23 01:58:39;;;;;;;14.55;11.77;;;18.70;99.90;;;;;;21012246;28;20052;-61
2023/08/23 02:08:41;;;;;;;14.73;11.80;;;18.60;99.90;;;;;;20998190;28;20036;-61
2023/08/23 02:18:44;;;;;;;18.35;12.00;;;18.60;99.90;;;;;;21015831;28;20036;-61
2023/08/23 02:28:47;;;;;;;14.32;12.73;;;18.60;99.90;;;;;;21031068;28;20113;-61
2023/08/23 02:38:49;;;;;;;14.23;12.07;;;18.80;99.90;;;;;;21024735;28;20040;-60
2023/08/23 02:48:51;;;;;;;15.15;12.25;;;18.60;99.90;;;;;;21023857;28;20028;-60
2023/08/23 02:58:53;;;;;;;14.68;12.30;;;18.50;99.90;;;;;;21052524;28;20507;-60
2023/08/23 03:08:55;;;;;;;16.92;12.73;;;18.50;99.90;;;;;;21034864;28;20058;-60
2023/08/23 03:18:57;;;;;;;16.80;13.40;;;18.60;99.90;;;;;;21037690;28;20036;-60
2023/08/23 03:28:58;;;;;;;16.98;13.60;;;18.80;99.90;;;;;;21003104;28;20058;-60
2023/08/23 03:39:00;;;;;;;14.77;12.75;;;18.80;99.90;;;;;;21003449;28;20043;-60
2023/08/23 03:49:04;;;;;;;16.67;12.80;;;18.80;99.90;;;;;;21005539;28;20032;-60
2023/08/23 03:59:06;;;;;;;17.05;13.68;;;18.60;99.90;;;;;;20993569;28;20061;-60
2023/08/23 04:09:09;;;;;;;16.85;13.70;;;18.50;99.90;;;;;;21010332;28;20028;-60
2023/08/23 04:19:11;;;;;;;14.45;12.88;;;18.50;99.90;;;;;;20973582;28;20384;-58
2023/08/23 04:29:13;;;;;;;15.60;12.32;;;18.40;99.90;;;;;;20978833;28;20090;-59
2023/08/23 04:39:16;;;;;;;15.68;13.10;;;18.20;99.90;;;;;;21013280;28;20051;-56
2023/08/23 04:49:18;;;;;;;14.50;12.95;;;18.40;99.90;;;;;;20984151;28;20028;-59
2023/08/23 04:59:19;;;;;;;16.60;13.40;;;18.50;99.90;;;;;;21003718;28;20048;-59
2023/08/23 05:09:22;;;;;;;17.55;12.95;;;18.60;99.90;;;;;;20978385;28;20503;-48
2023/08/23 05:19:25;;;;;;;14.60;12.90;;;18.60;99.90;;;;;;20976300;28;20043;-50
2023/08/23 05:29:26;;;;;;;15.80;13.50;;;18.70;99.90;;;;;;20980469;28;20440;-60
2023/08/23 05:39:28;;;;;;;17.13;12.90;;;18.90;99.90;;;;;;21003473;28;20024;-60
2023/08/23 05:49:30;;;;;;;14.90;12.27;;;19.10;99.90;;;;;;20980106;28;20047;-60
2023/08/23 05:59:33;;;;;;;17.95;13.00;;;19.40;99.90;;;;;;20994411;28;20198;-60
2023/08/23 06:09:37;;;;;;;16.48;13.38;;;19.40;99.90;;;;;;21013801;28;20052;-60
2023/08/23 06:19:38;;;;;;;15.40;13.27;;;19.50;99.90;;;;;;20998432;28;20480;-60
2023/08/23 06:29:41;;;;;;;13.77;12.27;;;19.60;99.90;;;;;;21023383;28;20060;-60
2023/08/23 06:39:42;;;;;;;10.63;9.50;;;19.90;99.90;;;;;;21013836;28;20028;-61
2023/08/23 06:49:44;;;;;;;13.32;9.75;;;21.40;99.90;;;;;;21024276;28;20188;-62
2023/08/23 06:59:46;;;;;;;12.20;9.50;;;23.40;99.90;;;;;;21006407;28;20501;-62
2023/08/23 07:09:49;;;;;;;10.80;9.75;;;24.40;99.90;;;;;;21004915;28;20032;-64
2023/08/23 07:19:51;;;;;;;10.00;9.00;;;26.00;99.90;;;;;;20988104;28;20028;-65
2023/08/23 07:29:53;;;;;;;10.45;9.40;;;27.30;99.90;;;;;;20998437;28;20032;-66
2023/08/23 07:39:55;;;;;;;9.93;8.93;;;27.50;99.90;;;;;;21015375;28;20043;-66
2023/08/23 07:49:57;;;;;;;10.13;9.15;;;28.50;99.90;;;;;;20988222;28;20044;-48
2023/08/23 07:59:59;;;;;;;11.40;10.20;;;29.20;99.80;;;;;;21010404;28;20036;-66
2023/08/23 08:10:01;;;;;;;11.82;10.65;;;29.70;98.70;;;;;;21005878;28;20032;-66
2023/08/23 08:20:08;;;;;;;11.40;10.23;;;30.10;97.90;;;;;;20990774;28;20444;-61
2023/08/23 08:30:10;;;;;;;11.02;9.95;;;30.50;97.00;;;;;;20765821;28;20080;-53
2023/08/23 08:40:12;;;;;;;12.60;11.43;;;30.70;96.80;;;;;;20754778;28;20077;-64
2023/08/23 08:50:14;;;;;;;11.23;10.20;;;30.90;95.20;;;;;;20757479;28;20503;-51
2023/08/23 09:00:17;;;;;;;11.95;10.82;;;31.00;95.10;;;;;;20953418;28;20113;-63
2023/08/23 09:10:20;;;;;;;12.75;10.15;;;31.20;94.90;;;;;;21003352;28;20040;-56
2023/08/23 09:20:22;;;;;;;11.88;10.63;;;31.30;93.60;;;;;;21000211;28;20557;-55
2023/08/23 09:30:25;;;;;;;11.80;10.60;;;31.50;93.90;;;;;;21014478;28;20387;-63
2023/08/23 09:40:27;;;;;;;12.35;11.25;;;31.80;93.90;;;;;;20992052;28;20489;-63
2023/08/23 09:50:28;;;;;;;13.15;12.00;;;32.30;93.00;;;;;;20997828;28;20485;-62
2023/08/23 10:00:30;;;;;;;13.30;12.20;;;32.30;94.30;;;;;;21006895;28;20048;-62
2023/08/23 10:10:32;;;;;;;12.85;11.65;;;32.70;92.40;;;;;;20993795;28;20106;-62
2023/08/23 10:20:36;;;;;;;14.20;12.70;;;33.10;92.80;;;;;;20997887;28;20032;-62
2023/08/23 10:30:43;;;;;;;15.53;13.13;;;33.30;93.20;;;;;;21015813;28;20041;-62
2023/08/23 10:40:49;;;;;;;14.40;12.98;;;32.90;93.30;;;;;;20974920;28;20040;-61
2023/08/23 10:50:53;;;;;;;14.00;12.77;;;33.40;92.20;;;;;;21010675;28;20037;-61
2023/08/23 11:01:14;;;;;;;13.50;12.23;;;33.70;91.70;;;;;;21004278;28;20040;-62
2023/08/23 11:11:16;;;;;;;12.70;11.60;;;33.20;91.50;;;;;;21004512;28;20401;-62
2023/08/23 11:21:18;;;;;;;14.00;12.70;;;33.40;91.20;;;;;;20997483;28;20036;-61
2023/08/23 11:31:21;;;;;;;12.65;11.32;;;33.60;91.80;;;;;;20989497;28;20040;-62
2023/08/23 11:41:30;;;;;;;12.13;10.93;;;33.10;91.10;;;;;;21015365;28;20028;-62
2023/08/23 11:51:50;;;;;;;14.68;11.75;;;32.40;92.50;;;;;;20997717;28;20384;-63
2023/08/23 12:01:55;;;;;;;13.77;11.18;;;33.10;92.00;;;;;;21001342;28;20059;-62
2023/08/23 12:11:59;;;;;;;;;;;33.60;91.40;;;;;;21008678;28;20418;-63
2023/08/23 12:22:00;;;;;;;13.35;11.68;;;33.70;90.70;;;;;;21012549;28;20434;-63
2023/08/23 12:32:03;;;;;;;13.95;12.23;;;33.10;91.50;;;;;;20991340;28;20033;-65
2023/08/23 12:42:05;;;;;;;13.32;11.63;;;32.40;91.60;;;;;;20998449;28;20054;-64
2023/08/23 12:52:07;;;;;;;15.00;11.95;;;30.70;94.40;;;;;;21010216;28;20036;-62
2023/08/23 13:02:09;;;;;;;15.15;12.98;;;32.20;93.80;;;;;;20997109;28;20044;-63
2023/08/23 13:12:11;;;;;;;12.52;11.23;;;33.00;91.20;;;;;;21009189;28;20020;-62
2023/08/23 13:22:13;;;;;;;14.10;12.70;;;33.10;92.70;;;;;;21008133;28;20036;-65
2023/08/23 13:32:15;;;;;;;13.02;11.82;;;32.40;91.90;;;;;;20985041;28;20028;-64
2023/08/23 13:42:17;;;;;;;14.45;12.30;;;31.80;93.70;;;;;;21003417;28;20028;-63
2023/08/23 13:52:19;;;;;;;12.07;10.95;;;32.30;92.30;;;;;;21002579;28;20062;-64
2023/08/23 14:02:21;;;;;;;15.57;13.13;;;32.70;91.70;;;;;;21003922;28;20055;-63
2023/08/23 14:12:24;;;;;;;15.45;11.30;;;32.40;91.80;;;;;;21016821;28;20032;-62
2023/08/23 14:22:26;;;;;;;15.10;12.82;;;32.40;92.10;;;;;;20991237;28;20044;-63
2023/08/23 14:32:28;;;;;;;12.68;11.07;;;32.20;92.50;;;;;;21003036;28;20077;-63
2023/08/23 14:42:30;;;;;;;16.20;11.50;;;32.10;92.10;;;;;;21012084;28;20437;-63
2023/08/23 14:52:33;;;;;;;14.02;12.52;;;31.90;91.90;;;;;;21019136;28;20541;-64
2023/08/23 15:02:35;;;;;;;13.57;12.23;;;31.70;92.00;;;;;;20992883;28;20040;-64
2023/08/23 15:12:36;;;;;;;14.55;12.63;;;31.30;91.70;;;;;;21008793;28;20089;-67
2023/08/23 15:22:38;;;;;;;14.38;11.48;;;31.40;91.50;;;;;;21017563;28;20035;-65
2023/08/23 15:32:40;;;;;;;15.60;10.95;;;31.10;92.10;;;;;;20997718;28;20109;-64
2023/08/23 15:42:42;;;;;;;12.68;10.35;;;30.60;91.90;;;;;;21011770;28;20036;-64
2023/08/23 15:52:44;;;;;;;12.05;10.70;;;30.40;92.10;;;;;;21017311;28;20032;-64
2023/08/23 16:02:45;;;;;;;10.50;9.38;;;30.40;97.90;;;;;;20995439;28;20121;-63
2023/08/23 16:12:48;;;;;;;11.70;10.48;;;29.80;92.60;;;;;;21019756;28;20062;-62
2023/08/23 16:22:49;;;;;;;10.43;9.43;;;29.00;93.60;;;;;;20991946;28;20048;-62
2023/08/23 16:32:51;;;;;;;13.60;12.05;;;27.80;95.80;;;;;;21005770;28;20036;-61
2023/08/23 16:42:53;;;;;;;18.20;14.07;;;26.50;97.30;;;;;;21007211;28;20033;-60
2023/08/23 16:52:55;;;;;;;21.65;14.57;;;25.00;99.90;;;;;;21043729;28;20036;-58
2023/08/23 17:02:57;;;;;;;16.90;15.10;;;23.50;99.90;;;;;;21040020;28;20451;-59
2023/08/23 17:12:58;;;;;;;22.52;14.93;;;22.60;99.90;;;;;;21043531;28;20375;-60
2023/08/23 17:23:00;;;;;;;17.67;15.00;;;22.20;99.90;;;;;;21038117;28;20039;-60
2023/08/23 17:33:04;;;;;;;23.92;15.13;;;22.30;99.90;;;;;;21045322;28;20417;-49
2023/08/23 17:43:06;;;;;;;18.40;14.52;;;21.90;99.90;;;;;;21041140;28;20028;-59
2023/08/23 17:53:08;;;;;;;17.25;15.00;;;21.50;99.90;;;;;;21045790;28;20468;-59
2023/08/23 18:03:10;;;;;;;16.25;13.35;;;21.30;99.90;;;;;;21050341;28;20040;-59
2023/08/23 18:13:12;;;;;;;17.98;13.13;;;21.20;99.90;;;;;;21053785;28;20036;-60
2023/08/23 18:23:14;;;;;;;18.17;13.82;;;21.20;99.90;;;;;;21060377;28;20039;-60
2023/08/23 18:33:16;;;;;;;17.17;12.95;;;20.90;99.90;;;;;;21057201;28;20031;-60
2023/08/23 18:43:18;;;;;;;17.25;12.75;;;20.80;99.90;;;;;;21044399;28;20036;-60
2023/08/23 18:53:19;;;;;;;18.88;13.70;;;20.90;99.90;;;;;;21053483;28;20039;-49
2023/08/23 19:03:21;;;;;;;19.20;15.55;;;20.60;99.90;;;;;;21047080;28;20425;-60
2023/08/23 19:13:23;;;;;;;17.98;14.48;;;20.40;99.90;;;;;;21038183;28;20032;-60
2023/08/23 19:23:25;;;;;;;16.02;13.40;;;20.60;99.90;;;;;;21055783;28;20034;-47
2023/08/23 19:33:28;;;;;;;17.65;14.05;;;20.30;99.90;;;;;;21054693;28;20082;-60
2023/08/23 19:43:30;;;;;;;16.13;12.80;;;20.20;99.90;;;;;;21047591;28;20040;-61
2023/08/23 19:53:32;;;;;;;18.58;15.98;;;20.20;99.90;;;;;;21053056;28;20101;-60
2023/08/23 20:03:34;;;;;;;19.80;16.77;;;20.30;99.90;;;;;;21045006;28;20407;-57
2023/08/23 20:13:37;;;;;;;21.95;17.67;;;20.20;99.90;;;;;;21040416;28;20032;-60
2023/08/23 20:23:39;;;;;;;26.33;19.45;;;20.00;99.90;;;;;;21021748;28;20032;-57
2023/08/23 20:33:42;;;;;;;29.58;19.95;;;19.70;99.90;;;;;;21056788;28;20089;-58
2023/08/23 20:43:44;;;;;;;25.90;19.52;;;19.70;99.90;;;;;;21015024;28;20106;-62
2023/08/23 20:53:46;;;;;;;27.05;19.70;;;19.40;99.90;;;;;;21040147;28;20036;-62
2023/08/23 21:03:48;;;;;;;26.20;17.13;;;19.30;99.90;;;;;;21026598;28;20039;-62
2023/08/23 21:13:50;;;;;;;24.25;18.10;;;19.10;99.90;;;;;;21039826;28;20529;-61
2023/08/23 21:23:52;;;;;;;20.92;16.92;;;19.20;99.90;;;;;;21039578;28;20035;-58
2023/08/23 21:33:54;;;;;;;18.40;13.15;;;19.40;99.90;;;;;;21027355;28;20055;-57
2023/08/23 21:43:57;;;;;;;21.42;14.98;;;19.40;99.90;;;;;;21033764;28;20150;-59
2023/08/23 21:53:59;;;;;;;24.15;19.40;;;19.30;99.90;;;;;;21021491;28;20036;-58
2023/08/23 22:04:01;;;;;;;19.85;16.23;;;19.40;99.90;;;;;;21029396;28;20458;-58
2023/08/23 22:14:03;;;;;;;27.02;21.35;;;19.30;99.90;;;;;;21037635;28;20177;-59
2023/08/23 22:24:04;;;;;;;25.55;18.80;;;19.50;99.90;;;;;;21037769;28;20413;-58
2023/08/23 22:34:06;;;;;;;27.95;20.88;;;19.20;99.90;;;;;;21037995;28;20542;-58
2023/08/23 22:44:09;;;;;;;26.25;21.58;;;19.00;99.90;;;;;;21053520;28;20086;-62
2023/08/23 22:54:11;;;;;;;26.27;20.77;;;19.00;99.90;;;;;;21051032;28;20043;-59
2023/08/23 23:04:13;;;;;;;23.38;17.75;;;19.10;99.90;;;;;;21040922;28;20053;-61
2023/08/23 23:14:18;;;;;;;23.35;19.90;;;18.80;99.90;;;;;;21058453;28;20044;-62
2023/08/23 23:24:20;;;;;;;24.98;19.83;;;18.70;99.90;;;;;;21057566;28;20028;-61
2023/08/23 23:34:22;;;;;;;24.65;18.17;;;18.60;99.90;;;;;;21050012;28;20036;-62
2023/08/23 23:44:23;;;;;;;24.00;18.35;;;18.80;99.90;;;;;;21044126;28;20036;-51
2023/08/23 23:54:25;;;;;;;24.45;18.70;;;18.80;99.90;;;;;;21054391;28;20401;-54
